Tiempo atmosférico en la estación meteorológica de Rasquera, Tarragona (186 m.)



Fecha
DESCASC
Temp. máxima en grados centígrados (hora)
DESCASC
Temp. mínima en grados centígrados (hora)
DESCASC
Temp. media en grados centígrados
DESCASC
Racha de viento máxima en m/sg (hora)
DESCASC
Velocidad máxima media en intervalos de 10 minutos(hora)
DESCASC
Precipitaciones diarias en mm
DESCASC
Precipitaciones de 00:00 a 06:00 en mm
DESCASC
Precipitaciones de 06:00 a 12:00 en mm
DESCASC
Precipitaciones de 12:00 a 18:00 en mm
DESCASC
Precipitaciones de 18:00 a 24:00 en mm
DESCASC
11-12-2019 14.7 (13:10) 1.5 (08:20) 8.1 22.22 (19:40) 11.67 (19:30) 0 0 0 0 0
08-12-2019 13.8 (16:40) 6.7 (00:00) 10.3 10.28 (19:20) 6.11 (23:59) 0 0 0 0 0
07-12-2019 12 (15:00) 4.1 (00:00) 8 5 (14:20) 3.06 (13:50) 0.2 0 0.2 0 0
06-12-2019 14.4 (14:40) 5.3 (00:00) 9.8 3.61 (13:30) 2.22 (14:50) 0.2 0.2 0 0 0
05-12-2019 11.2 (13:20) 8.6 (00:00) 9.9 4.17 (18:00) 2.5 (18:00) 8 0.4 1 5.2 1.4
04-12-2019 10.2 (20:00) 5.8 (07:20) 8 7.5 (07:00) 5 (19:10) 33.8 0.4 20.8 12.4 0.2
03-12-2019 9.7 (13:40) 3.5 (00:00) 6.6 8.33 (00:10) 4.17 (13:50) 0.6 0 0 0.4 0.2
02-12-2019 13.1 (15:20) 3 (00:00) 8.1 6.11 (12:10) 3.89 (12:30) 0 0 0 0 0
01-12-2019 15.3 (16:10) 3.8 (00:00) 9.6 10.28 (02:20) 5.28 (02:40) 0 0 0 0 0
30-11-2019 19.6 (14:40) 5.5 (00:00) 12.6 6.11 (17:10) 3.89 (17:10) 0 0 0 0 0
29-11-2019 19.9 (13:00) 9.4 (00:00) 14.6 15 (06:40) 8.33 (06:40) 0 0 0 0 0
28-11-2019 21.2 (14:40) 9.3 (00:10) 15.3 10.28 (01:30) 5.83 (01:40) 0 0 0 0 0
27-11-2019 19.5 (14:40) 8.5 (00:00) 14 11.39 (12:20) 6.67 (12:10) 0 0 0 0 0
26-11-2019 20.2 (15:00) 5.3 (00:00) 12.8 4.72 (19:20) 3.33 (19:20) 0 0 0 0 0
25-11-2019 18.9 (15:30) 5.1 (00:40) 12 10.28 (14:20) 5.56 (14:30) 0 0 0 0 0
24-11-2019 15.3 (13:50) 6.3 (00:00) 10.8 16.39 (00:10) 8.89 (03:50) 0 0 0 0 0
23-11-2019 13.5 (00:00) 7.4 (00:00) 10.5 22.78 (18:20) 10 (18:20) 0.8 0.8 0 0 0
22-11-2019 14.5 (13:20) 3.4 (00:00) 9 9.17 (13:20) 5.28 (13:30) 8 0 0 5.4 2.6
21-11-2019 16.6 (15:00) 1.5 (00:00) 9.1 3.89 (16:10) 2.22 (16:10) 0 0 0 0 0
20-11-2019 13.2 (15:40) -0.9 (07:20) 6.1 7.22 (15:10) 3.89 (15:20) 0 0 0 0 0
19-11-2019 12.7 (15:00) 0.9 (00:00) 6.8 11.39 (13:50) 5.83 (14:00) 0 0 0 0 0
18-11-2019 12.2 (14:50) 5.4 (00:00) 8.8 13.33 (18:00) 7.5 (11:00) 0 0 0 0 0
17-11-2019 15.3 (13:30) 5.4 (06:30) 10.4 9.72 (13:10) 5 (13:40) 0 0 0 0 0
16-11-2019 11.8 (15:00) 4.3 (08:20) 8.1 11.11 (23:59) 6.11 (12:50) 0 0 0 0 0
15-11-2019 12.3 (16:00) 3.4 (01:10) 7.9 12.78 (16:50) 5.28 (16:50) 0.4 0.2 0.2 0 0

Gráficas

Temp. máximas Temp. mínimas Temp. medias Precipitaciones Rachas de viento máximas Velocidades máximas media en intervalos de 10 minutos

Datos horarios

Fecha y hora oficial Temperatura (ºC) Velocidad del viento (km/h) Dirección del viento Racha (km/h) Dirección de racha Precipitación (mm) Presión (hPa) Tendencia (hPa) Humedad (%)
2019-12-11 23:00:00 10.1 12 Oeste 45 Oeste 0 -- -- 62
2019-12-11 22:00:00 10.4 26 Oeste 54 Noroeste 0 -- -- 62
2019-12-11 21:00:00 10.6 24 Oeste 67 Oeste 0 -- -- 61
2019-12-11 20:00:00 11.5 42 Oeste 80 Oeste 0 -- -- 53
2019-12-11 19:00:00 11.2 38 Oeste 79 Oeste 0 -- -- 58
2019-12-11 18:00:00 11.4 36 Oeste 67 Oeste 0 -- -- 62
2019-12-11 17:00:00 11.8 30 Oeste 55 Oeste 0 -- -- 66
2019-12-11 16:00:00 11.8 29 Oeste 51 Oeste 0 -- -- 67
2019-12-11 15:00:00 11.5 26 Oeste 55 Oeste 0 -- -- 70
2019-12-11 14:00:00 12.6 27 Oeste 55 Oeste 0 -- -- 59
2019-12-11 13:00:00 14 10 Noroeste 26 Oeste 0 -- -- 51
2019-12-11 12:00:00 8.9 4 Oeste 12 Oeste 0 -- -- 78
2019-12-11 11:00:00 6.6 4 Noroeste 8 Noroeste 0 -- -- 85
2019-12-11 10:00:00 4.9 0 Calma 6 Sudoeste 0 -- -- 97
2019-12-11 09:00:00 2.3 0 Calma 4 Noroeste 0 -- -- 97
2019-12-11 08:00:00 1.6 2 Oeste 5 Oeste 0 -- -- 96
2019-12-11 07:00:00 2.2 0 Calma 3 Sur 0 -- -- 96
2019-12-11 06:00:00 2.9 0 Calma 4 Sur 0 -- -- 96
2019-12-11 05:00:00 2.8 0 Calma 4 Noroeste 0 -- -- 96
2019-12-11 04:00:00 3.1 0 Calma 3 Sudeste 0 -- -- 96
2019-12-11 03:00:00 2.9 0 Calma 5 Sudoeste 0 -- -- 94
2019-12-11 02:00:00 3.5 0 Calma 5 Oeste 0 -- -- 92
2019-12-11 01:00:00 3.7 0 Calma 5 Noroeste 0 -- -- 91
2019-12-11 00:00:00 5.4 4 Oeste 8 Oeste 0 -- -- 85
2019-12-10 23:00:00 6.4 0 Calma 9 Noroeste 0 -- -- 81
2019-12-10 22:00:00 8 6 Noroeste 12 Noroeste 0 -- -- 74
2019-12-10 21:00:00 8.2 6 Oeste 12 Noroeste 0 -- -- 74
2019-12-10 20:00:00 9.4 8 Oeste 13 Oeste 0 -- -- 70
2019-12-10 19:00:00 10 6 Oeste 16 Noroeste 0 -- -- 68
2019-12-10 18:00:00 11.6 13 Noroeste 19 Noroeste 0 -- -- 64
2019-12-10 17:00:00 12.7 11 Norte 21 Noroeste 0 -- -- 61
2019-12-10 16:00:00 14.7 13 Norte 24 Noroeste 0 -- -- 51
2019-12-10 15:00:00 15.1 15 Noroeste 40 Noroeste 0 -- -- 47
2019-12-10 14:00:00 14.1 17 Noroeste 31 Noroeste 0 -- -- 52
2019-12-10 13:00:00 13.5 13 Noroeste 37 Noroeste 0 -- -- 54
2019-12-10 12:00:00 12.8 10 Noroeste 25 Noroeste 0 -- -- 58
2019-12-10 11:00:00 12.3 13 Oeste 27 Oeste 0 -- -- 58
2019-12-10 10:00:00 11.2 4 Noroeste 37 Noroeste 0 -- -- 62
2019-12-10 09:00:00 10.5 19 Noroeste 41 Noroeste 0 -- -- 63
2019-12-10 08:00:00 10.4 21 Noroeste 48 Oeste 0 -- -- 63
2019-12-10 07:00:00 10.8 29 Oeste 60 Oeste 0 -- -- 62
2019-12-10 06:00:00 10.7 15 Noroeste 35 Oeste 0 -- -- 63
2019-12-10 05:00:00 10.8 13 Noroeste 33 Oeste 0 -- -- 63
2019-12-10 04:00:00 11.2 19 Oeste 53 Oeste 0 -- -- 60
2019-12-10 03:00:00 11.3 14 Oeste 48 Sudoeste 0 -- -- 61
2019-12-10 02:00:00 11.5 18 Oeste 61 Sudoeste 0 -- -- 60
2019-12-10 01:00:00 11.8 31 Oeste 71 Sudoeste 0 -- -- 59
2019-12-10 00:00:00 11.9 32 Oeste 68 Oeste 0 -- -- 60
2019-12-09 23:00:00 12.1 27 Oeste 64 Oeste 0 -- -- 59
2019-12-09 22:00:00 12.3 37 Oeste 68 Oeste 0 -- -- 57
2019-12-09 21:00:00 12.4 30 Oeste 71 Oeste 0 -- -- 58
2019-12-09 20:00:00 12.7 29 Oeste 87 Oeste 0 -- -- 58
2019-12-09 19:00:00 12.9 37 Oeste 76 Oeste 0 -- -- 57
2019-12-09 18:00:00 13.3 37 Oeste 85 Oeste 0 -- -- 55
2019-12-09 17:00:00 13.9 40 Oeste 77 Oeste 0 -- -- 54
2019-12-09 16:00:00 14.4 36 Oeste 78 Oeste 0 -- -- 56
2019-12-09 15:00:00 14.9 41 Oeste 86 Oeste 0 -- -- 54
2019-12-09 14:00:00 15.3 31 Oeste 70 Oeste 0 -- -- 52
2019-12-09 13:00:00 14.9 29 Oeste 68 Noroeste 0 -- -- 53
2019-12-09 12:00:00 14 34 Noroeste 76 Noroeste 0 -- -- 54
2019-12-09 11:00:00 13.4 36 Noroeste 78 Oeste 0 -- -- 56
2019-12-09 10:00:00 13.1 32 Oeste 68 Oeste 0 -- -- 56
2019-12-09 09:00:00 12.4 23 Noroeste 50 Noroeste 0 -- -- 58
2019-12-09 08:00:00 11.5 12 Noroeste 38 Noroeste 0 -- -- 66
2019-12-09 07:00:00 11.2 13 Noroeste 29 Noroeste 0 -- -- 71
2019-12-09 06:00:00 11.3 9 Noroeste 35 Sudoeste 0 -- -- 71
2019-12-09 05:00:00 11.3 9 Noroeste 37 Noroeste 0 -- -- 74
2019-12-09 04:00:00 11.6 12 Noroeste 35 Noroeste 0 -- -- 76
2019-12-09 03:00:00 12.3 16 Oeste 45 Oeste 0 -- -- 74
2019-12-09 02:00:00 12.6 17 Noroeste 47 Noroeste 0 -- -- 73
2019-12-09 01:00:00 13 17 Oeste 46 Oeste 0 -- -- 72
2019-12-09 00:00:00 13.1 22 Oeste 36 Oeste 0 -- -- 75
2019-12-08 23:00:00 11.1 8 Norte 22 Norte 0 -- -- 88
2019-12-08 22:00:00 11 13 Noroeste 20 Norte 0 -- -- 87
2019-12-08 21:00:00 11.9 13 Noroeste 25 Noroeste 0 -- -- 82
2019-12-08 20:00:00 13.1 15 Noroeste 37 Oeste 0 -- -- 71
2019-12-08 19:00:00 11.9 9 Oeste 25 Noroeste 0 -- -- 74
2019-12-08 18:00:00 11.2 4 Noroeste 8 Noroeste 0 -- -- 79
2019-12-08 17:00:00 12.8 3 Oeste 6 Nordeste 0 -- -- 75
2019-12-08 16:00:00 13.3 5 Norte 13 Norte 0 -- -- 72
2019-12-08 15:00:00 12.7 5 Norte 14 Norte 0 -- -- 74
2019-12-08 14:00:00 11.7 6 Norte 19 Norte 0 -- -- 79
2019-12-08 13:00:00 10.5 8 Norte 14 Norte 0 -- -- 83
2019-12-08 12:00:00 9.3 5 Norte 14 Norte 0 -- -- 89
2019-12-08 11:00:00 8.3 9 Noroeste 17 Noroeste 0 -- -- 93
2019-12-08 10:00:00 7.2 6 Noroeste 12 Noroeste 0 -- -- 96
2019-12-08 09:00:00 7 7 Noroeste 12 Noroeste 0 -- -- 97
2019-12-08 08:00:00 7 4 Noroeste 13 Noroeste 0 -- -- 97
2019-12-08 07:00:00 7 5 Noroeste 12 Noroeste 0 -- -- 98
2019-12-08 06:00:00 6.9 9 Noroeste 17 Noroeste 0 -- -- 98
2019-12-08 05:00:00 7.1 8 Noroeste 13 Noroeste 0 -- -- 99
2019-12-08 04:00:00 7 8 Noroeste 16 Noroeste 0 -- -- 99
2019-12-08 03:00:00 6.7 6 Noroeste 13 Noroeste 0 -- -- 99
2019-12-08 02:00:00 7.1 6 Noroeste 14 Noroeste 0 -- -- 99
2019-12-08 01:00:00 7 6 Noroeste 14 Norte 0 -- -- 99
2019-12-08 00:00:00 6.8 5 Noroeste 8 Noroeste 0 -- -- 98
2019-12-07 23:00:00 6.7 5 Noroeste 9 Oeste 0 -- -- 98
2019-12-07 22:00:00 6.4 4 Noroeste 8 Noroeste 0 -- -- 97
2019-12-07 21:00:00 6.5 4 Noroeste 6 Oeste 0 -- -- 97
2019-12-07 20:00:00 6.7 0 Calma 10 Oeste 0 -- -- 93
2019-12-07 19:00:00 7.1 4 Oeste 7 Oeste 0 -- -- 94
2019-12-07 18:00:00 8.4 4 Oeste 7 Norte 0 -- -- 92
2019-12-07 17:00:00 10.6 4 Norte 15 Norte 0 -- -- 86
2019-12-07 16:00:00 11.6 9 Norte 18 Norte 0 -- -- 82
2019-12-07 15:00:00 12 8 Norte 18 Norte 0 -- -- 82
2019-12-07 14:00:00 11 11 Norte 18 Norte 0 -- -- 87
2019-12-07 13:00:00 9.4 8 Norte 17 Norte 0 -- -- 99
2019-12-07 12:00:00 8.7 5 Norte 13 Norte 0 -- -- 100
2019-12-07 11:00:00 7.4 5 Noroeste 9 Noroeste 0 -- -- 100
2019-12-07 10:00:00 6.5 5 Oeste 12 Oeste 0 -- -- 100
2019-12-07 09:00:00 5.9 5 Oeste 10 Noroeste 0 -- -- 100
2019-12-07 08:00:00 5.8 3 Oeste 8 Noroeste 0 -- -- 99
2019-12-07 07:00:00 5.6 2 Oeste 9 Norte 0.2 -- -- 99
2019-12-07 06:00:00 5.4 3 Noroeste 9 Noroeste 0 -- -- 99
2019-12-07 05:00:00 5.2 0 Calma 5 Sudoeste 0 -- -- 99
2019-12-07 04:00:00 5.1 0 Calma 6 Noroeste 0 -- -- 99
2019-12-07 03:00:00 5 0 Calma 4 Sudeste 0 -- -- 99
2019-12-07 02:00:00 4.1 3 Sudeste 4 Sudeste 0 -- -- 98
2019-12-07 01:00:00 5.1 0 Calma 4 Noroeste 0 -- -- 98
2019-12-07 00:00:00 5.5 0 Calma -- -- 0 -- -- 98
2019-12-06 23:00:00 5.5 0 Calma 2 Noroeste 0 -- -- 97
2019-12-06 22:00:00 6 3 Oeste 4 Oeste 0 -- -- 97
2019-12-06 21:00:00 6.6 0 Calma 5 Sudoeste 0 -- -- 96
2019-12-06 20:00:00 7.4 0 Calma 7 Oeste 0 -- -- 94
2019-12-06 19:00:00 8.5 0 Calma 7 Sudoeste 0 -- -- 92
2019-12-06 18:00:00 10.1 5 Sudoeste 7 Sudoeste 0 -- -- 88
2019-12-06 17:00:00 13.2 5 Sudoeste 6 Sur 0 -- -- 81
2019-12-06 16:00:00 13.8 0 Calma 11 Norte 0 -- -- 79
2019-12-06 15:00:00 14.1 8 Norte 13 Noroeste 0 -- -- 77
2019-12-06 14:00:00 13.6 3 Noroeste 13 Norte 0 -- -- 78
2019-12-06 13:00:00 12.7 6 Norte 13 Norte 0 -- -- 84
2019-12-06 12:00:00 12.1 3 Noroeste 9 Noroeste 0 -- -- 92
2019-12-06 11:00:00 10.5 3 Noroeste 8 Noroeste 0 -- -- 98
2019-12-06 10:00:00 9.9 3 Oeste 6 Norte 0 -- -- 99
2019-12-06 09:00:00 9.4 4 Norte 7 Sudoeste 0 -- -- 99
2019-12-06 08:00:00 9 0 Calma 5 Oeste 0 -- -- 99
2019-12-06 07:00:00 9.1 3 Oeste 6 Oeste 0 -- -- 99
2019-12-06 06:00:00 9.2 3 Oeste 7 Noroeste 0 -- -- 99
2019-12-06 05:00:00 9.2 4 Noroeste 6 Noroeste 0 -- -- 98
2019-12-06 04:00:00 9.2 3 Oeste 7 Oeste 0 -- -- 98
2019-12-06 03:00:00 9.2 3 Oeste 5 Noroeste 0.2 -- -- 98
2019-12-06 02:00:00 9.3 0 Calma 3 Sudoeste 0 -- -- 98
2019-12-06 01:00:00 9.4 0 Calma 4 Oeste 0 -- -- 98
2019-12-06 00:00:00 9.4 0 Calma 4 Sudeste 0 -- -- 98
2019-12-05 23:00:00 9.2 3 Sur 5 Sur 0 -- -- 98
2019-12-05 22:00:00 9.5 0 Calma 6 Sur 0.4 -- -- 98
2019-12-05 21:00:00 9.6 0 Calma 4 Norte 0.2 -- -- 98
2019-12-05 20:00:00 9.7 0 Calma 8 Nordeste 0.2 -- -- 98
2019-12-05 19:00:00 9.9 0 Calma 13 Oeste 0.6 -- -- 97
2019-12-05 18:00:00 9.9 9 Oeste 15 Oeste 1 -- -- 97
2019-12-05 17:00:00 10.2 6 Oeste 13 Oeste 0.8 -- -- 98
2019-12-05 16:00:00 10.7 5 Noroeste 11 Norte 1.2 -- -- 98
2019-12-05 15:00:00 10.9 5 Norte 9 Norte 1 -- -- 97
2019-12-05 14:00:00 11.2 5 Noroeste 13 Oeste 0.8 -- -- 97
2019-12-05 13:00:00 11 8 Oeste 13 Oeste 0.4 -- -- 97
2019-12-05 12:00:00 10.6 4 Norte 8 Norte 0.2 -- -- 98
2019-12-05 11:00:00 10.1 4 Norte 7 Norte 0.4 -- -- 98
2019-12-05 10:00:00 9.5 0 Calma 4 Sudoeste 0 -- -- 98
2019-12-05 09:00:00 9 0 Calma 6 Oeste 0 -- -- 98
2019-12-05 08:00:00 9 3 Norte 4 Oeste 0.2 -- -- 98
2019-12-05 07:00:00 8.9 2 Sur 4 Nordeste 0.2 -- -- 98
2019-12-05 06:00:00 8.8 0 Calma 5 Sudoeste 0 -- -- 98
2019-12-05 05:00:00 8.7 0 Calma 6 Sudoeste 0 -- -- 98
2019-12-05 04:00:00 8.7 0 Calma 9 Oeste 0 -- -- 98
2019-12-05 03:00:00 8.6 5 Sudoeste 9 Noroeste 0 -- -- 98
2019-12-05 02:00:00 8.8 3 Norte 5 Norte 0.2 -- -- 97
2019-12-05 01:00:00 8.8 2 Sur 5 Sudoeste 0.2 -- -- 97
2019-12-05 00:00:00 8.9 0 Calma 6 Sur 0 -- -- 96
2019-12-04 23:00:00 8.9 3 Sur 9 Sur 0 -- -- 96
2019-12-04 22:00:00 9 3 Sur 8 Este 0 -- -- 95
2019-12-04 21:00:00 9.5 3 Nordeste 15 Sudoeste 0 -- -- 93
2019-12-04 20:00:00 10.2 9 Oeste 26 Sudoeste 0 -- -- 89
2019-12-04 19:00:00 9 12 Oeste 26 Sudoeste 0.2 -- -- 99
2019-12-04 18:00:00 7.8 2 Nordeste 8 Noroeste 0 -- -- 98
2019-12-04 17:00:00 7.8 0 Calma 7 Oeste 0.2 -- -- 98
2019-12-04 16:00:00 7.8 4 Norte 8 Norte 2.2 -- -- 98
2019-12-04 15:00:00 7.5 4 Norte 10 Noroeste 3.2 -- -- 98
2019-12-04 14:00:00 7.8 4 Noroeste 12 Oeste 1.6 -- -- 98
2019-12-04 13:00:00 7.1 3 Norte 10 Este 5.2 -- -- 98
2019-12-04 12:00:00 6.7 3 Noroeste 12 Oeste 6.2 -- -- 98
2019-12-04 11:00:00 6.5 5 Norte 10 Norte 3 -- -- 98
2019-12-04 10:00:00 6.2 4 Norte 12 Nordeste 3.2 -- -- 97
2019-12-04 09:00:00 6 3 Norte 10 Este 3.6 -- -- 96
2019-12-04 08:00:00 5.9 4 Oeste 22 Noroeste 3.6 -- -- 95
2019-12-04 07:00:00 6 12 Norte 27 Noroeste 1.2 -- -- 93
2019-12-04 06:00:00 6.5 9 Norte 21 Norte 0 -- -- 87
2019-12-04 05:00:00 6.4 10 Norte 20 Norte 0 -- -- 88
2019-12-04 04:00:00 6.6 9 Norte 17 Noroeste 0 -- -- 86
2019-12-04 03:00:00 6.6 8 Norte 17 Noroeste 0 -- -- 87
2019-12-04 02:00:00 6.3 10 Norte 18 Norte 0.2 -- -- 90
2019-12-04 01:00:00 6.4 9 Norte 19 Norte 0.2 -- -- 89
2019-12-04 00:00:00 7 10 Norte 19 Noroeste 0 -- -- 82
2019-12-03 23:00:00 7 8 Norte 16 Norte 0 -- -- 83
2019-12-03 22:00:00 6.8 7 Norte 15 Norte 0 -- -- 85
2019-12-03 21:00:00 7.1 8 Norte 14 Norte 0 -- -- 82
2019-12-03 20:00:00 7.3 7 Norte 16 Norte 0 -- -- 80
2019-12-03 19:00:00 6.9 9 Norte 18 Norte 0.2 -- -- 83
2019-12-03 18:00:00 6.5 2 Noroeste 12 Noroeste 0 -- -- 89
2019-12-03 17:00:00 7.3 7 Noroeste 18 Norte 0.4 -- -- 85
2019-12-03 16:00:00 8.4 10 Norte 21 Norte 0 -- -- 73
2019-12-03 15:00:00 8.2 8 Norte 22 Noroeste 0 -- -- 77
2019-12-03 14:00:00 9.5 14 Noroeste 24 Noroeste 0 -- -- 66
2019-12-03 13:00:00 9.5 12 Noroeste 20 Noroeste 0 -- -- 63
2019-12-03 12:00:00 9.1 12 Noroeste 21 Norte 0 -- -- 65
2019-12-03 11:00:00 8.2 12 Norte 23 Norte 0 -- -- 71
2019-12-03 10:00:00 5.7 8 Noroeste 15 Noroeste 0 -- -- 83
2019-12-03 09:00:00 4 9 Noroeste 14 Noroeste 0 -- -- 87
2019-12-03 08:00:00 3.8 11 Noroeste 18 Norte 0 -- -- 86
2019-12-03 07:00:00 3.8 11 Noroeste 20 Norte 0 -- -- 86
2019-12-03 06:00:00 4 5 Noroeste 12 Norte 0 -- -- 85
2019-12-03 05:00:00 4.9 8 Norte 14 Noroeste 0 -- -- 80
2019-12-03 04:00:00 5.1 5 Noroeste 10 Norte 0 -- -- 79
2019-12-03 03:00:00 6.2 8 Noroeste 17 Oeste 0 -- -- 76
2019-12-03 02:00:00 6.7 6 Noroeste 20 Oeste 0 -- -- 76
2019-12-03 01:00:00 8.3 10 Oeste 30 Oeste 0 -- -- 70
2019-12-03 00:00:00 8.7 12 Oeste 22 Oeste 0 -- -- 71
2019-12-02 23:00:00 8.6 7 Oeste 22 Noroeste 0 -- -- 77
2019-12-02 22:00:00 6.5 0 Calma 7 Norte 0 -- -- 92
2019-12-02 21:00:00 6.4 3 Noroeste 6 Noroeste 0 -- -- 89
2019-12-02 20:00:00 8.1 5 Noroeste 9 Noroeste 0 -- -- 86
2019-12-02 19:00:00 9 3 Norte 14 Oeste 0 -- -- 82
2019-12-02 18:00:00 10.7 5 Oeste 11 Noroeste 0 -- -- 75
2019-12-02 17:00:00 11.9 6 Noroeste 15 Norte 0 -- -- 71
2019-12-02 16:00:00 13 7 Norte 17 Norte 0 -- -- 71
2019-12-02 15:00:00 12.5 9 Norte 21 Norte 0 -- -- 74
2019-12-02 14:00:00 12.4 10 Norte 21 Norte 0 -- -- 75
2019-12-02 13:00:00 12.1 9 Norte 22 Noroeste 0 -- -- 74
2019-12-02 12:00:00 11.8 11 Noroeste 20 Noroeste 0 -- -- 72
2019-12-02 11:00:00 9.7 8 Noroeste 14 Noroeste 0 -- -- 84
2019-12-02 10:00:00 7.1 6 Noroeste 14 Norte 0 -- -- 92
2019-12-02 09:00:00 6.4 7 Oeste 13 Oeste 0 -- -- 94
2019-12-02 08:00:00 6.2 4 Noroeste 9 Noroeste 0 -- -- 93
2019-12-02 07:00:00 5.9 5 Oeste 12 Oeste 0 -- -- 93
2019-12-02 06:00:00 5.5 4 Oeste 11 Noroeste 0 -- -- 93
2019-12-02 05:00:00 5 6 Oeste 12 Oeste 0 -- -- 97
2019-12-02 04:00:00 4 4 Oeste 9 Oeste 0 -- -- 97
2019-12-02 03:00:00 3.6 5 Oeste 8 Oeste 0 -- -- 98
2019-12-02 02:00:00 3.3 5 Oeste 6 Sudoeste 0 -- -- 97
2019-12-02 01:00:00 3.3 4 Oeste 5 Oeste 0 -- -- 96
2019-12-02 00:00:00 3.8 3 Nordeste 5 Oeste 0 -- -- 94
2019-12-01 23:00:00 4.6 4 Sur 8 Oeste 0 -- -- 93
2019-12-01 22:00:00 5.3 3 Norte 5 Oeste 0 -- -- 93
2019-12-01 21:00:00 5.8 0 Calma 8 Este 0 -- -- 88
2019-12-01 20:00:00 7.4 5 Sur 8 Oeste 0 -- -- 85
2019-12-01 19:00:00 8.4 0 Calma 9 Sudoeste 0 -- -- 80
2019-12-01 18:00:00 10.4 5 Sudoeste 8 Sudoeste 0 -- -- 72
2019-12-01 17:00:00 13.2 5 Oeste 9 Noroeste 0 -- -- 65
2019-12-01 16:00:00 14.9 3 Nordeste 12 Norte 0 -- -- 61
2019-12-01 15:00:00 14 6 Norte 14 Norte 0 -- -- 64
2019-12-01 14:00:00 14 10 Norte 17 Norte 0 -- -- 62
2019-12-01 13:00:00 13.2 5 Norte 15 Noroeste 0 -- -- 65
2019-12-01 12:00:00 12.2 5 Norte 13 Nordeste 0 -- -- 72
2019-12-01 11:00:00 10.7 4 Noroeste 9 Oeste 0 -- -- 80
2019-12-01 10:00:00 9.7 3 Noroeste 9 Oeste 0 -- -- 82
2019-12-01 09:00:00 9 4 Oeste 7 Oeste 0 -- -- 83
2019-12-01 08:00:00 9.6 6 Oeste 10 Noroeste 0 -- -- 82
2019-12-01 07:00:00 9.5 3 Noroeste 9 Noroeste 0 -- -- 84
2019-12-01 06:00:00 9.8 5 Noroeste 9 Noroeste 0 -- -- 78
2019-12-01 05:00:00 10.9 6 Noroeste 13 Noroeste 0 -- -- 75
2019-12-01 04:00:00 12.3 7 Noroeste 21 Oeste 0 -- -- 67
2019-12-01 03:00:00 13 14 Oeste 37 Oeste 0 -- -- 65
2019-12-01 02:00:00 13.3 13 Oeste 34 Oeste 0 -- -- 66
2019-12-01 01:00:00 13.3 14 Oeste 29 Sudoeste 0 -- -- 77
2019-12-01 00:00:00 12.5 6 Oeste 9 Oeste 0 -- -- 93
2019-11-30 23:00:00 13.3 4 Sur 10 Sudeste 0 -- -- 90
2019-11-30 22:00:00 13.4 5 Sudeste 10 Este 0 -- -- 90
2019-11-30 21:00:00 13.4 8 Sudeste 17 Sudeste 0 -- -- 92
2019-11-30 20:00:00 13.4 7 Sur 15 Sudeste 0 -- -- 92
2019-11-30 19:00:00 13.4 6 Sur 17 Sudeste 0 -- -- 91
2019-11-30 18:00:00 13.5 9 Sudeste 22 Sudeste 0 -- -- 89
2019-11-30 17:00:00 15.2 12 Sudeste 22 Sudeste 0 -- -- 83
2019-11-30 16:00:00 17.9 13 Sudeste 22 Sudeste 0 -- -- 73
2019-11-30 15:00:00 19.4 9 Sudeste 17 Este 0 -- -- 66
2019-11-30 14:00:00 18.2 3 Nordeste 10 Este 0 -- -- 71
2019-11-30 13:00:00 15.9 3 Nordeste 6 Noroeste 0 -- -- 78
2019-11-30 12:00:00 13.8 3 Norte 6 Nordeste 0 -- -- 82
2019-11-30 11:00:00 10.5 3 Norte 6 Norte 0 -- -- 90
2019-11-30 10:00:00 7.2 0 Calma 6 Noroeste 0 -- -- 98
2019-11-30 09:00:00 6.8 0 Calma 4 Nordeste 0 -- -- 97
2019-11-30 08:00:00 5.9 0 Calma 3 Sur 0 -- -- 97
2019-11-30 07:00:00 5.7 0 Calma 4 Este 0 -- -- 96
2019-11-30 06:00:00 6.4 0 Calma -- -- 0 -- -- 96
2019-11-30 05:00:00 6.6 0 Calma 6 Sur 0 -- -- 96
2019-11-30 04:00:00 6.7 4 Sur 6 Sudeste 0 -- -- 95
2019-11-30 03:00:00 7.6 2 Noroeste 4 Noroeste 0 -- -- 94
2019-11-30 02:00:00 8.1 0 Calma 3 Noroeste 0 -- -- 92
2019-11-30 01:00:00 9.2 3 Norte 5 Noroeste 0 -- -- 90
2019-11-30 00:00:00 9.4 2 Sudoeste 7 Noroeste 0 -- -- 92
2019-11-29 23:00:00 9.9 3 Norte 10 Este 0 -- -- 88
2019-11-29 22:00:00 10 0 Calma 5 Sudoeste 0 -- -- 87
2019-11-29 21:00:00 11.6 4 Sur 7 Sur 0 -- -- 82
2019-11-29 20:00:00 13.8 6 Noroeste 19 Sudoeste 0 -- -- 74
2019-11-29 19:00:00 15.2 7 Sudoeste 14 Oeste 0 -- -- 67
2019-11-29 18:00:00 15.5 8 Oeste 19 Oeste 0 -- -- 67
2019-11-29 17:00:00 17.6 5 Oeste 15 Norte 0 -- -- 59
2019-11-29 16:00:00 17.5 8 Noroeste 31 Oeste 0 -- -- 59
2019-11-29 15:00:00 18.5 10 Noroeste 29 Oeste 0 -- -- 57
2019-11-29 14:00:00 18.7 8 Oeste 32 Noroeste 0 -- -- 58
2019-11-29 13:00:00 19.9 9 Oeste 31 Oeste 0 -- -- 56
2019-11-29 12:00:00 17.9 18 Oeste 43 Oeste 0 -- -- 62
2019-11-29 11:00:00 17.6 10 Oeste 31 Oeste 0 -- -- 64
2019-11-29 10:00:00 16.8 13 Oeste 30 Oeste 0 -- -- 64
2019-11-29 09:00:00 16.7 14 Oeste 45 Oeste 0 -- -- 63
2019-11-29 08:00:00 16.9 22 Oeste 51 Oeste 0 -- -- 61
2019-11-29 07:00:00 17.4 23 Oeste 54 Oeste 0 -- -- 59
2019-11-29 06:00:00 17 22 Oeste 46 Oeste 0 -- -- 58
2019-11-29 05:00:00 16.9 19 Oeste 33 Oeste 0 -- -- 58
2019-11-29 04:00:00 16.7 14 Noroeste 30 Oeste 0 -- -- 56
2019-11-29 03:00:00 16.2 13 Oeste 26 Oeste 0 -- -- 55
2019-11-29 02:00:00 15 14 Noroeste 24 Noroeste 0 -- -- 58
2019-11-29 01:00:00 16.2 10 Oeste 24 Oeste 0 -- -- 54
2019-11-29 00:00:00 16.5 14 Oeste 31 Oeste 0 -- -- 52
2019-11-28 23:00:00 16.6 13 Oeste 24 Oeste 0 -- -- 52
2019-11-28 22:00:00 17.1 14 Oeste 29 Oeste 0 -- -- 50
2019-11-28 21:00:00 16 10 Oeste 22 Sudoeste 0 -- -- 57
2019-11-28 20:00:00 14.2 0 Calma 13 Noroeste 0 -- -- 70
2019-11-28 19:00:00 14.8 3 Este 5 Este 0 -- -- 65
2019-11-28 18:00:00 17.2 4 Oeste 10 Oeste 0 -- -- 53
2019-11-28 17:00:00 19 7 Oeste 25 Oeste 0 -- -- 48
2019-11-28 16:00:00 19.9 12 Oeste 28 Oeste 0 -- -- 47
2019-11-28 15:00:00 21 16 Oeste 31 Oeste 0 -- -- 45
2019-11-28 14:00:00 20.7 14 Oeste 26 Sudoeste 0 -- -- 46
2019-11-28 13:00:00 19.6 16 Noroeste 30 Oeste 0 -- -- 48
2019-11-28 12:00:00 19.2 9 Oeste 31 Oeste 0 -- -- 51
2019-11-28 11:00:00 18 11 Oeste 33 Sudoeste 0 -- -- 52
2019-11-28 10:00:00 17.2 14 Oeste 36 Oeste 0 -- -- 51
2019-11-28 09:00:00 15.9 13 Oeste 30 Noroeste 0 -- -- 54
2019-11-28 08:00:00 11.1 4 Norte 22 Noroeste 0 -- -- 70
2019-11-28 07:00:00 14.7 13 Oeste 31 Sudoeste 0 -- -- 56
2019-11-28 06:00:00 14.7 8 Oeste 33 Oeste 0 -- -- 57
2019-11-28 05:00:00 14.6 12 Oeste 27 Sudoeste 0 -- -- 57
2019-11-28 04:00:00 15 10 Oeste 24 Oeste 0 -- -- 55
2019-11-28 03:00:00 15.4 16 Oeste 32 Oeste 0 -- -- 53
2019-11-28 02:00:00 15.8 21 Sudoeste 37 Oeste 0 -- -- 52
2019-11-28 01:00:00 12.9 14 Oeste 25 Oeste 0 -- -- 61
2019-11-28 00:00:00 9.6 0 Calma 8 Este 0 -- -- 76
2019-11-27 23:00:00 10.6 3 Sudeste 8 Sudoeste 0 -- -- 74
2019-11-27 22:00:00 12.2 3 Este 6 Este 0 -- -- 65
2019-11-27 21:00:00 12.4 3 Noroeste 15 Sudoeste 0 -- -- 66
2019-11-27 20:00:00 11.1 5 Sudoeste 9 Sudeste 0 -- -- 70
2019-11-27 19:00:00 13.2 5 Sudeste 14 Noroeste 0 -- -- 61
2019-11-27 18:00:00 16.7 10 Oeste 23 Noroeste 0 -- -- 48
2019-11-27 17:00:00 17.5 12 Noroeste 27 Noroeste 0 -- -- 46
2019-11-27 16:00:00 18.6 13 Noroeste 32 Noroeste 0 -- -- 45
2019-11-27 15:00:00 19.4 13 Noroeste 28 Noroeste 0 -- -- 43
2019-11-27 14:00:00 18.8 14 Oeste 36 Oeste 0 -- -- 43
2019-11-27 06:00:00 9.2 3 Este 13 Sudoeste 0 -- -- 97
2019-11-27 05:00:00 8.7 4 Oeste 12 Oeste 0 -- -- 97
2019-11-27 04:00:00 8.9 6 Oeste 9 Noroeste 0 -- -- 97
2019-11-27 03:00:00 8.6 2 Sudoeste 10 Oeste 0 -- -- 95
2019-11-27 02:00:00 9.3 0 Calma 9 Sudoeste 0 -- -- 95
2019-11-27 01:00:00 9.4 3 Sudeste 7 Sudeste 0 -- -- 95
2019-11-27 00:00:00 10.3 2 Oeste 6 Sudeste 0 -- -- 93
2019-11-26 23:00:00 10.7 2 Sur 6 Noroeste 0 -- -- 91
2019-11-26 22:00:00 11.5 7 Sudoeste 10 Sudoeste 0 -- -- 88
2019-11-26 21:00:00 11.3 3 Noroeste 11 Sudoeste 0 -- -- 85
2019-11-26 20:00:00 14.1 5 Sudoeste 17 Sur 0 -- -- 76
2019-11-26 19:00:00 13.7 9 Sur 15 Sur 0 -- -- 76
2019-11-26 18:00:00 13.8 8 Sur 10 Sur 0 -- -- 77
2019-11-26 17:00:00 17.1 7 Sur 10 Sur 0 -- -- 68
2019-11-26 16:00:00 19.8 2 Norte 8 Sudoeste 0 -- -- 56
2019-11-26 15:00:00 20.2 4 Sur 11 Norte 0 -- -- 56
2019-11-26 14:00:00 17.9 4 Norte 10 Noroeste 0 -- -- 61
2019-11-26 13:00:00 16.4 5 Noroeste 8 Norte 0 -- -- 68
2019-11-26 12:00:00 13.4 3 Noroeste 8 Noroeste 0 -- -- 80
2019-11-26 11:00:00 10.1 2 Noroeste 8 Norte 0 -- -- 88
2019-11-26 10:00:00 8.2 4 Noroeste 6 Noroeste 0 -- -- 98
2019-11-26 09:00:00 6.2 0 Calma 5 Norte 0 -- -- 98
2019-11-26 08:00:00 5.6 0 Calma 3 Noroeste 0 -- -- 97
2019-11-26 07:00:00 6 2 Sudeste 5 Sudeste 0 -- -- 98
2019-11-26 06:00:00 6.6 3 Oeste 6 Oeste 0 -- -- 97
2019-11-26 05:00:00 7 4 Noroeste 7 Oeste 0 -- -- 97
2019-11-26 04:00:00 6 0 Calma 4 Sudeste 0 -- -- 96
2019-11-26 03:00:00 7.3 0 Calma 6 Noroeste 0 -- -- 96
2019-11-26 02:00:00 7.4 4 Oeste 5 Sudoeste 0 -- -- 96
2019-11-26 01:00:00 7.9 0 Calma 5 Sur 0 -- -- 95
2019-11-26 00:00:00 8.6 0 Calma 8 Oeste 0 -- -- 94
2019-11-25 23:00:00 8.9 0 Calma 5 Sudeste 0 -- -- 93
2019-11-25 22:00:00 9.6 0 Calma 8 Sudoeste 0 -- -- 92
2019-11-25 21:00:00 10.2 0 Calma 6 Sudoeste 0 -- -- 90
2019-11-25 20:00:00 10.9 0 Calma 6 Sur 0 -- -- 87
2019-11-25 19:00:00 12.3 0 Calma 3 Nordeste 0 -- -- 81
2019-11-25 18:00:00 15.3 3 Sudeste 13 Oeste 0 -- -- 70
2019-11-25 17:00:00 18 5 Oeste 20 Oeste 0 -- -- 61
2019-11-25 16:00:00 18.6 14 Oeste 30 Oeste 0 -- -- 58
2019-11-25 15:00:00 18.6 16 Noroeste 37 Oeste 0 -- -- 58
2019-11-25 14:00:00 18.6 14 Oeste 29 Noroeste 0 -- -- 58
2019-11-25 13:00:00 17.9 16 Noroeste 31 Oeste 0 -- -- 59
2019-11-25 12:00:00 14.7 7 Norte 19 Norte 0 -- -- 69
2019-11-25 11:00:00 11.1 9 Noroeste 15 Norte 0 -- -- 78
2019-11-25 10:00:00 9.2 5 Noroeste 9 Noroeste 0 -- -- 79
2019-11-25 09:00:00 7 0 Calma 6 Oeste 0 -- -- 89
2019-11-25 08:00:00 5.8 5 Sudoeste 8 Sur 0 -- -- 89
2019-11-25 07:00:00 7.1 2 Sudoeste 7 Sur 0 -- -- 85
2019-11-25 06:00:00 6.7 2 Sur 16 Noroeste 0 -- -- 86
2019-11-25 05:00:00 7.3 9 Noroeste 14 Noroeste 0 -- -- 81
2019-11-25 04:00:00 7.2 10 Noroeste 17 Noroeste 0 -- -- 81
2019-11-25 03:00:00 8.3 11 Noroeste 19 Noroeste 0 -- -- 76
2019-11-25 02:00:00 8 11 Noroeste 17 Noroeste 0 -- -- 77
2019-11-25 01:00:00 6.5 3 Norte 15 Noroeste 0 -- -- 83
2019-11-25 00:00:00 6.3 0 Calma 9 Este 0 -- -- 81
2019-11-24 23:00:00 8.2 5 Nordeste 13 Norte 0 -- -- 73
2019-11-24 22:00:00 9.3 5 Norte 11 Norte 0 -- -- 69
2019-11-24 21:00:00 11.4 7 Noroeste 17 Oeste 0 -- -- 59
2019-11-24 20:00:00 12.3 11 Noroeste 34 Oeste 0 -- -- 58
2019-11-24 19:00:00 11.6 11 Noroeste 21 Oeste 0 -- -- 63
2019-11-24 18:00:00 13 12 Noroeste 30 Noroeste 0 -- -- 57
2019-11-24 17:00:00 13.9 14 Oeste 42 Noroeste 0 -- -- 56
2019-11-24 16:00:00 14.9 19 Noroeste 46 Oeste 0 -- -- 52
2019-11-24 15:00:00 15.2 26 Noroeste 53 Noroeste 0 -- -- 52
2019-11-24 14:00:00 15.1 17 Oeste 51 Oeste 0 -- -- 52
2019-11-24 13:00:00 14.6 23 Oeste 49 Oeste 0 -- -- 52
2019-11-24 12:00:00 14.1 17 Oeste 54 Noroeste 0 -- -- 53
2019-11-24 11:00:00 12.9 18 Noroeste 44 Noroeste 0 -- -- 57
2019-11-24 10:00:00 12.1 19 Noroeste 41 Noroeste 0 -- -- 58
2019-11-24 09:00:00 11.3 16 Oeste 46 Oeste 0 -- -- 60
2019-11-24 08:00:00 11 21 Oeste 54 Sudoeste 0 -- -- 60
2019-11-24 07:00:00 11.1 24 Oeste 57 Oeste 0 -- -- 60
2019-11-24 06:00:00 11.1 21 Oeste 52 Oeste 0 -- -- 60
2019-11-24 05:00:00 11.2 18 Oeste 54 Oeste 0 -- -- 60
2019-11-24 04:00:00 11.4 26 Oeste 59 Oeste 0 -- -- 59
2019-11-24 03:00:00 11.4 20 Oeste 53 Oeste 0 -- -- 60
2019-11-24 02:00:00 11.6 23 Oeste 50 Oeste 0 -- -- 59
2019-11-24 01:00:00 11.7 22 Oeste 59 Oeste 0 -- -- 59
2019-11-24 00:00:00 11.5 27 Oeste 67 Oeste 0 -- -- 61
2019-11-23 23:00:00 12.1 30 Oeste 66 Oeste 0 -- -- 58
2019-11-23 22:00:00 12.3 30 Oeste 74 Oeste 0 -- -- 58
2019-11-23 21:00:00 12.4 29 Oeste 63 Oeste 0 -- -- 57
2019-11-23 20:00:00 12.6 26 Oeste 56 Oeste 0 -- -- 56
2019-11-23 19:00:00 12.8 31 Oeste 82 Oeste 0 -- -- 55
2019-11-23 18:00:00 12.8 29 Oeste 73 Oeste 0 -- -- 55
2019-11-23 17:00:00 13.1 33 Oeste 63 Oeste 0 -- -- 54
2019-11-23 16:00:00 13.1 25 Oeste 64 Noroeste 0 -- -- 57
2019-11-23 15:00:00 13.1 24 Oeste 54 Oeste 0 -- -- 57
2019-11-23 14:00:00 12.8 24 Oeste 55 Oeste 0 -- -- 60
2019-11-23 13:00:00 12.8 16 Oeste 39 Oeste 0 -- -- 68
2019-11-23 12:00:00 11.7 15 Noroeste 31 Oeste 0 -- -- 78
2019-11-23 11:00:00 11.2 21 Oeste 58 Oeste 0 -- -- 72
2019-11-23 10:00:00 12.2 18 Oeste 48 Oeste 0 -- -- 64
2019-11-23 09:00:00 9.6 8 Noroeste 19 Oeste 0 -- -- 79
2019-11-23 08:00:00 10.4 9 Oeste 24 Oeste 0 -- -- 77
2019-11-23 07:00:00 8.6 4 Noroeste 10 Sudoeste 0 -- -- 98
2019-11-23 06:00:00 8.4 4 Sur 6 Nordeste 0 -- -- 98
2019-11-23 05:00:00 8.4 3 Noroeste 6 Norte 0 -- -- 97
2019-11-23 04:00:00 7.8 0 Calma 7 Oeste 0 -- -- 95
2019-11-23 03:00:00 8.5 0 Calma 6 Sudoeste 0 -- -- 93
2019-11-23 02:00:00 10.8 4 Oeste 8 Noroeste 0 -- -- 93
2019-11-23 01:00:00 12.6 7 Noroeste 28 Oeste 0.8 -- -- 94
2019-11-23 00:00:00 13.5 9 Sudeste 19 Sudeste 0 -- -- 90
2019-11-22 23:00:00 14 10 Este 24 Sudeste 0 -- -- 90
2019-11-22 22:00:00 13.9 14 Sudeste 26 Sudeste 0 -- -- 92
2019-11-22 21:00:00 13.8 10 Sudeste 27 Este 0 -- -- 93
2019-11-22 20:00:00 13.3 9 Este 19 Este 0 -- -- 97
2019-11-22 19:00:00 12.7 8 Sudeste 25 Sudeste 2.6 -- -- 97
2019-11-22 18:00:00 12.1 12 Sudeste 22 Sudeste 3 -- -- 95
2019-11-22 17:00:00 12.1 8 Sudeste 21 Sudeste 1 -- -- 94
2019-11-22 16:00:00 12.2 5 Sudeste 16 Este 0.8 -- -- 92
2019-11-22 15:00:00 12.6 9 Sudeste 27 Sudeste 0.6 -- -- 88
2019-11-22 14:00:00 13.6 13 Sudeste 33 Sudeste 0 -- -- 79
2019-11-22 13:00:00 14 15 Sudeste 29 Sudeste 0 -- -- 77
2019-11-22 12:00:00 11.1 4 Noroeste 9 Noroeste 0 -- -- 87
2019-11-22 11:00:00 7.6 2 Norte 5 Noroeste 0 -- -- 97
2019-11-22 10:00:00 6.6 0 Calma 4 Oeste 0 -- -- 98
2019-11-22 09:00:00 5 0 Calma 4 Este 0 -- -- 98
2019-11-22 08:00:00 3.4 0 Calma 4 Sudeste 0 -- -- 96
2019-11-22 07:00:00 3.8 0 Calma 3 Sudoeste 0 -- -- 96
2019-11-22 06:00:00 4.3 0 Calma 6 Sudeste 0 -- -- 95
2019-11-22 05:00:00 5 2 Este 5 Sur 0 -- -- 94
2019-11-22 04:00:00 5.8 4 Sur 6 Sur 0 -- -- 94
2019-11-22 03:00:00 6.4 3 Oeste 6 Noroeste 0 -- -- 93
2019-11-22 02:00:00 6.3 0 Calma 6 Oeste 0 -- -- 92
2019-11-22 01:00:00 7.4 2 Oeste 4 Oeste 0 -- -- 90
2019-11-22 00:00:00 8.5 0 Calma 3 Oeste 0 -- -- 90
2019-11-21 23:00:00 8.7 2 Oeste 3 Oeste 0 -- -- 90
2019-11-21 22:00:00 8.9 0 Calma 6 Sur 0 -- -- 89
2019-11-21 21:00:00 8.8 0 Calma 3 Norte 0 -- -- 88
2019-11-21 20:00:00 10 0 Calma 8 Sur 0 -- -- 83
2019-11-21 19:00:00 11.5 5 Sur 12 Sur 0 -- -- 76
2019-11-21 18:00:00 11.5 7 Sur 12 Sudeste 0 -- -- 78
2019-11-21 17:00:00 12.8 7 Sudeste 14 Sudeste 0 -- -- 72
2019-11-21 16:00:00 14.3 5 Sudeste 11 Sudeste 0 -- -- 66
2019-11-21 15:00:00 16.6 5 Sur 11 Sudeste 0 -- -- 55
2019-11-21 14:00:00 14.6 2 Norte 9 Noroeste 0 -- -- 60
2019-11-21 13:00:00 12.5 5 Norte 10 Noroeste 0 -- -- 70
2019-11-21 12:00:00 10.3 3 Noroeste 9 Noroeste 0 -- -- 79
2019-11-21 11:00:00 8.4 5 Norte 9 Oeste 0 -- -- 90
2019-11-21 10:00:00 5.6 4 Oeste 8 Noroeste 0 -- -- 99
2019-11-21 09:00:00 3.2 3 Noroeste 7 Oeste 0 -- -- 99
2019-11-21 08:00:00 -- -- -- -- -- -- -- -- --
2019-11-21 07:00:00 -- -- -- -- -- -- -- -- --
2019-11-21 06:00:00 -- -- -- -- -- -- -- -- --
2019-11-21 05:00:00 -- -- -- -- -- -- -- -- --
2019-11-21 04:00:00 -- -- -- -- -- -- -- -- --
2019-11-21 03:00:00 -- -- -- -- -- -- -- -- --
2019-11-21 02:00:00 -- -- -- -- -- -- -- -- --
2019-11-21 01:00:00 -- -- -- -- -- -- -- -- --
2019-11-21 00:00:00 -- -- -- -- -- -- -- -- --
2019-11-20 23:00:00 -- -- -- -- -- -- -- -- --
2019-11-20 22:00:00 -- -- -- -- -- -- -- -- --
2019-11-20 21:00:00 -- -- -- -- -- -- -- -- --
2019-11-20 20:00:00 -- -- -- -- -- -- -- -- --
2019-11-20 19:00:00 8.8 7 Sudeste 12 Sur 0 -- -- 85
2019-11-20 18:00:00 10.3 8 Sur 14 Sur 0 -- -- 82
2019-11-20 17:00:00 12.1 9 Sur 17 Sur 0 -- -- 75
2019-11-20 16:00:00 12.7 10 Sudeste 26 Sudeste 0 -- -- 72
2019-11-20 15:00:00 12.4 13 Sudeste 25 Sudeste 0 -- -- 73
2019-11-20 14:00:00 10.4 0 Calma 6 Nordeste 0 -- -- 72
2019-11-20 13:00:00 8.6 0 Calma 5 Noroeste 0 -- -- 76
2019-11-20 12:00:00 6 2 Norte 6 Noroeste 0 -- -- 87
2019-11-20 11:00:00 4 2 Norte 5 Norte 0 -- -- 97
2019-11-20 10:00:00 1.3 0 Calma 2 Nordeste 0 -- -- 98
2019-11-20 09:00:00 0.1 0 Calma 4 Sudeste 0 -- -- 98
2019-11-20 08:00:00 -0.9 2 Noroeste 4 Noroeste 0 -- -- 97
2019-11-20 07:00:00 -0.7 0 Calma -- -- 0 -- -- 97
2019-11-20 06:00:00 -0.6 0 Calma 2 Sudoeste 0 -- -- 97
2019-11-20 05:00:00 -0.3 0 Calma 3 Noroeste 0 -- -- 97
2019-11-20 04:00:00 0.5 0 Calma 5 Sudeste 0 -- -- 97
2019-11-20 03:00:00 0.4 0 Calma 4 Noroeste 0 -- -- 96
2019-11-20 02:00:00 0.1 0 Calma 4 Noroeste 0 -- -- 96
2019-11-20 01:00:00 0.3 3 Oeste 4 Oeste 0 -- -- 96
2019-11-20 00:00:00 0.9 2 Sudoeste 4 Noroeste 0 -- -- 95
2019-11-19 23:00:00 1.3 2 Noroeste 3 Oeste 0 -- -- 94
2019-11-19 22:00:00 2.1 0 Calma 8 Sudoeste 0 -- -- 92
2019-11-19 21:00:00 3.1 4 Sudoeste 6 Sudoeste 0 -- -- 90
2019-11-19 20:00:00 4 0 Calma 8 Sudoeste 0 -- -- 87
2019-11-19 19:00:00 5.2 0 Calma 8 Sudoeste 0 -- -- 83
2019-11-19 18:00:00 8.4 5 Oeste 12 Noroeste 0 -- -- 70
2019-11-19 17:00:00 11.6 9 Noroeste 28 Noroeste 0 -- -- 58
2019-11-19 16:00:00 12.5 15 Noroeste 27 Noroeste 0 -- -- 53
2019-11-19 15:00:00 12.7 13 Oeste 31 Oeste 0 -- -- 53
2019-11-19 14:00:00 12.1 21 Noroeste 41 Noroeste 0 -- -- 56
2019-11-19 13:00:00 12 15 Oeste 32 Oeste 0 -- -- 54
2019-11-19 12:00:00 11.7 14 Oeste 30 Oeste 0 -- -- 56
2019-11-19 11:00:00 10.5 19 Oeste 33 Oeste 0 -- -- 61
2019-11-19 10:00:00 6.8 11 Noroeste 17 Oeste 0 -- -- 78
2019-11-19 09:00:00 3.8 9 Noroeste 16 Oeste 0 -- -- 86
2019-11-19 08:00:00 2.2 0 Calma 15 Noroeste 0 -- -- 88
2019-11-19 07:00:00 2.5 7 Noroeste 17 Oeste 0 -- -- 88
2019-11-19 06:00:00 3.4 8 Noroeste 18 Noroeste 0 -- -- 83
2019-11-19 05:00:00 4.2 10 Noroeste 22 Norte 0 -- -- 80
2019-11-19 04:00:00 5.3 8 Noroeste 26 Oeste 0 -- -- 76